Home > Products > Valid Products > TAF

000
FTUS46 KMFR 251700 RRA
TAFMFR
TAF
KMFR 251745Z 2518/2618 00000KT P6SM SKC
     FM252300 34009G16KT P6SM SKC
     FM260400 36004KT P6SM SKC=



000
FTUS46 KMFR 251700 RRA
TAFRBG
TAF
KRBG 251745Z 2518/2618 00000KT P6SM SCT017
     FM252300 36011G17KT P6SM SKC
     FM260400 34005KT P6SM SKC
     FM261200 00000KT P6SM BKN015=



000
FTUS46 KMFR 251700 RRA
TAFLMT
TAF
KLMT 251745Z 2518/2618 32006KT P6SM SKC
     FM260000 33011KT P6SM SKC
     FM260500 31005KT P6SM SKC=



000
FTUS46 KMFR 251700 RRA
TAFOTH
TAF
KOTH 251745Z 2518/2618 36012KT P6SM SKC
     FM251900 35018G25KT P6SM SKC
     FM260500 35012KT P6SM SCT009
     FM260800 35006KT P6SM BKN009
     FM261500 36008KT P6SM SCT009=



000
FTUS46 KMFR 251400 AAB
TAFOTH
TAF AMD
KOTH 251457Z 2515/2612 01005KT P6SM SCT003
     FM251900 35018G25KT P6SM SKC
     FM260300 35012KT P6SM SCT009
     FM260800 35006KT P6SM BKN009=



000
FTUS46 KMFR 251200 AAA
TAFOTH
TAF AMD
KOTH 251240Z 2513/2612 02004KT 1/4SM FG OVC002
     FM251500 01005KT P6SM SCT003
     FM251900 35018G25KT P6SM SKC
     FM260300 35012KT P6SM SCT009
     FM260800 35006KT P6SM BKN009=



000
FTUS46 KMFR 251100 RRA
TAFRBG
TAF
KRBG 251142Z 2512/2612 35003KT P6SM BKN020
     FM251600 01006KT P6SM SKC
     FM252300 36011G17KT P6SM SKC
     FM260400 34005KT P6SM SKC
     FM261000 00000KT P6SM BKN015=



000
FTUS46 KMFR 251100 RRA
TAFMFR
TAF
KMFR 251142Z 2512/2612 36003KT P6SM SKC
     FM252200 34009G16KT P6SM SKC
     FM260400 36004KT P6SM SKC=



000
FTUS46 KMFR 251100 RRA
TAFLMT
TAF
KLMT 251142Z 2512/2612 VRB04KT P6SM SKC
     FM260000 33011KT P6SM SKC
     FM260500 31005KT P6SM SKC=



000
FTUS46 KMFR 251100 RRA
TAFOTH
TAF
KOTH 251142Z 2512/2612 02004KT P6SM FEW008
     FM251900 35018G25KT P6SM SKC
     FM260300 35012KT P6SM SCT009
     FM260800 35006KT P6SM BKN009=



000
FTUS46 KMFR 250500
TAFMFR
TAF
KMFR 250520Z 2506/2606 36003KT P6SM SKC
     FM252200 35009G16KT P6SM SKC=



000
FTUS46 KMFR 250500
TAFOTH
TAF
KOTH 250520Z 2506/2606 36007KT P6SM SKC
     FM251200 02004KT 6SM BR FEW008
     FM251800 35018G25KT P6SM SKC
     FM260300 35015KT P6SM SCT009=



000
FTUS46 KMFR 250500
TAFLMT
TAF
KLMT 250520Z 2506/2606 VRB04KT P6SM SKC
     FM260000 33011KT P6SM SKC=



000
FTUS46 KMFR 250500
TAFRBG
TAF
KRBG 250520Z 2506/2606 35003KT P6SM SKC
     FM252300 36011G17KT P6SM SKC=



000
FTUS46 KMFR 242300 RRA
TAFOTH
TAF
KOTH 242344Z 2500/2524 35015G23KT P6SM SKC
     FM250500 36010KT P6SM SKC
     FM251100 02004KT P6SM SCT010
     FM251900 35020G30KT P6SM FEW012=



000
FTUS46 KMFR 242300 RRA
TAFRBG
TAF
KRBG 242344Z 2500/2524 36012G17KT P6SM SKC
     FM250500 36003KT P6SM SKC
     FM252100 01010KT P6SM SKC=



000
FTUS46 KMFR 242300 RRA
TAFLMT
TAF
KLMT 242344Z 2500/2524 35009KT P6SM SKC
     FM250600 VRB03KT P6SM SKC
     FM252200 34008KT P6SM SKC=



000
FTUS46 KMFR 242300 RRA
TAFMFR
TAF
KMFR 242344Z 2500/2524 33009KT P6SM SKC
     FM250400 VRB03KT P6SM SKC
     FM252200 30008KT P6SM SKC=



000
FTUS46 KMFR 241700
TAFMFR
TAF
KMFR 241739Z 2418/2518 35006KT P6SM FEW050
     FM242200 32008KT P6SM SKC
     FM250000 32012G17KT P6SM SKC
     FM250400 VRB03KT P6SM SKC=



000
FTUS46 KMFR 241700
TAFRBG
TAF
KRBG 241739Z 2418/2518 35006KT P6SM BKN050
     FM250000 36012G17KT P6SM SKC
     FM250500 36003KT P6SM SKC=



000
FTUS46 KMFR 241700
TAFLMT
TAF
KLMT 241739Z 2418/2518 VRB05KT P6SM SKC
     FM242300 35009KT P6SM SKC
     FM250600 VRB03KT P6SM SKC=



000
FTUS46 KMFR 241700
TAFOTH
TAF
KOTH 241739Z 2418/2518 VRB06KT P6SM BKN025 BKN060
     FM241900 34015G21KT P6SM SCT025 BKN060
     FM250000 36020G28KT P6SM SKC
     FM250500 36010KT P6SM SKC
     FM251100 02004KT P6SM SCT010=



000
FTUS46 KMFR 241400 AAA
TAFRBG
TAF AMD
KRBG 241414Z 2414/2512 00000KT P6SM BKN005 OVC035
     FM241600 35003KT P6SM SCT006 BKN040
     FM241800 36005KT P6SM SCT040
     FM250000 36012KT P6SM SKC
     FM250500 36003KT P6SM SKC=



000
FTUS46 KMFR 241300 AAA
TAFOTH
TAF AMD
KOTH 241310Z 2413/2512 15005KT P6SM SCT025 OVC050
     FM241600 34006KT P6SM FEW025 BKN050
     FM241900 34015G21KT P6SM SCT050
     FM250000 36020G28KT P6SM SKC
     FM250500 36010KT P6SM SKC
     FM251100 02004KT P6SM SCT010=



000
FTUS46 KMFR 241100
TAFMFR
TAF
KMFR 241140Z 2412/2512 00000KT P6SM FEW050
     FM242200 32008KT P6SM SKC=



000
FTUS46 KMFR 241100
TAFLMT
TAF
KLMT 241140Z 2412/2512 33005KT P6SM SKC
     FM242300 35009KT P6SM SKC=



000
FTUS46 KMFR 241100
TAFRBG
TAF
KRBG 241140Z 2412/2512 35003KT P6SM SCT035 BKN050
     FM241800 36005KT P6SM SCT050
     FM250000 36012KT P6SM SKC
     FM250500 36003KT P6SM SKC=



000
FTUS46 KMFR 241100
TAFOTH
TAF
KOTH 241140Z 2412/2512 15005KT P6SM -DZ BKN025 OVC035
     FM241600 34006KT P6SM SCT025 BKN035
     FM241900 34015G21KT P6SM SCT035
     FM250000 36020G28KT P6SM SKC
     FM250500 36010KT P6SM SKC
     FM250900 36004KT P6SM BKN010=



000
FTUS46 KMFR 241000 AAA
TAFOTH
TAF AMD
KOTH 241001Z 2410/2506 14004KT P6SM BKN025 OVC035
     FM241500 VRB04KT P6SM SCT020 BKN035 BKN060
     FM241900 34015G21KT P6SM SCT035
     FM250000 36020G28KT P6SM SKC=



000
FTUS46 KMFR 240500
TAFMFR
TAF
KMFR 240523Z 2406/2506 02005KT P6SM SCT035 BKN050
     FM240900 VRB03KT P6SM FEW020 SCT035 SCT050
     FM241200 00000KT P6SM FEW035 FEW050
     FM242100 32008KT P6SM SKC=



000
FTUS46 KMFR 240500
TAFLMT
TAF
KLMT 240523Z 2406/2506 34005KT P6SM SKC
     FM242300 35009KT P6SM SKC=



000
FTUS46 KMFR 240500
TAFOTH
TAF
KOTH 240523Z 2406/2506 19004KT P6SM FEW008 SCT020 SCT035
     FM241200 17004KT P6SM BKN020
     FM241500 VRB04KT P6SM SCT020 BKN035 BKN060
     FM241900 34015G21KT P6SM SCT035
     FM250000 36020G28KT P6SM SKC=



000
FTUS46 KMFR 240500
TAFRBG
TAF
KRBG 240523Z 2406/2506 VRB03KT P6SM FEW030
     FM241200 35005KT P6SM BKN035 BKN050
     FM241800 36009KT P6SM SCT050
     FM250000 36011G17KT P6SM SKC=



000
FTUS46 KMFR 240400 AAA
TAFOTH
TAF AMD
KOTH 240440Z 2405/2424 19005KT P6SM SCT020
     FM240800 18005KT P6SM SCT015 OVC020
     FM241000 13005KT P6SM OVC006
     FM241700 34007KT P6SM SCT012
     FM242100 35010G20KT P6SM SCT015=



000
FTUS46 KMFR 232300
TAFLMT
TAF
KLMT 232337Z 2400/2424 28016G25KT P6SM VCSH SCT050 SCT080
     FM240300 32010KT P6SM SCT040
     FM240600 30004KT P6SM FEW040=



000
FTUS46 KMFR 232300
TAFOTH
TAF
KOTH 232337Z 2400/2424 24010KT P6SM FEW030 SCT050
     FM240400 24008KT P6SM -SHRA BKN025
     FM240800 18005KT P6SM SCT015 OVC020
     FM241000 13005KT P6SM OVC006
     FM241700 34007KT P6SM SCT012
     FM242100 35010G20KT P6SM SCT015=



000
FTUS46 KMFR 232300
TAFMFR
TAF
KMFR 232337Z 2400/2424 31014G21KT P6SM VCSH BKN070
     FM240400 34004KT P6SM SCT050
     FM242200 35008G16KT P6SM FEW070=



000
FTUS46 KMFR 232300
TAFRBG
TAF
KRBG 232337Z 2400/2424 25004KT P6SM -SHRA BKN035 OVC070
     FM240100 24004KT P6SM SCT030 BKN050
     FM241100 35005KT P6SM BKN020
     FM241700 36005KT P6SM FEW030
     FM242200 36008KT P6SM SKC=



000
FTUS46 KMFR 232000 AAC
TAFRBG
TAF AMD
KRBG 232050Z 2321/2418 13004KT P6SM SCT015 BKN020 OVC040
      TEMPO 2321/2322 2SM -SHRA BR BKN015
     FM232200 34008KT P6SM -SHRA BKN035 OVC050
     FM240100 33006KT P6SM SCT030 BKN050
     FM241100 35005KT P6SM BKN025
     FM241700 36005KT P6SM FEW030=



000
FTUS46 KMFR 232000 AAB
TAFRBG
TAF AMD
KRBG 232005Z 2320/2418 13004KT P6SM BKN010
     FM232200 34008KT P6SM -SHRA BKN035 OVC050
     FM240100 33006KT P6SM SCT030 BKN050
     FM241100 35005KT P6SM BKN025
     FM241700 36005KT P6SM FEW030=



000
FTUS46 KMFR 231800 AAA
TAFRBG
TAF AMD
KRBG 231822Z 2318/2418 VRB03KT P6SM BKN015
     FM232000 34008KT P6SM -SHRA BKN035 OVC050
     FM240100 33006KT P6SM SCT030 BKN050
     FM241100 35005KT P6SM BKN025
     FM241700 36005KT P6SM FEW030=



000
FTUS46 KMFR 231700
TAFMFR
TAF
KMFR 231736Z 2318/2418 31006KT P6SM -SHRA BKN030 OVC060
     FM232100 31014G21KT P6SM VCSH BKN060
     FM240400 34004KT P6SM SCT050=



000
FTUS46 KMFR 231700
TAFRBG
TAF
KRBG 231736Z 2318/2418 VRB03KT P6SM SCT025 OVC040
     FM232000 34008KT P6SM -SHRA BKN035 OVC050
     FM240100 33006KT P6SM SCT030 BKN050
     FM241100 35005KT P6SM BKN025
     FM241700 36005KT P6SM FEW030=



000
FTUS46 KMFR 231700
TAFOTH
TAF
KOTH 231736Z 2318/2418 23010KT 3SM -SHRA BR BKN010 OVC025
      TEMPO 2318/2320 2SM -SHRA BR BKN004
     FM232200 25011G17KT P6SM -SHRA BKN025 OVC035
     FM240000 26010KT P6SM FEW030 SCT050
     FM240800 18005KT P6SM SCT015 OVC020
     FM241000 13005KT P6SM OVC006
     FM241700 35007KT P6SM SCT010=



000
FTUS46 KMFR 231700
TAFLMT
TAF
KLMT 231736Z 2318/2418 26010KT P6SM SCT080
     FM232100 25020G30KT P6SM VCSH SCT040 BKN080
     FM240300 32016KT P6SM SCT040
     FM240600 27005KT P6SM FEW040=



000
FTUS46 KMFR 231500 AAA
TAFMFR
TAF AMD
KMFR 231548Z 2316/2412 31006KT P6SM -SHRA BKN020 OVC060
     FM232100 31014G21KT P6SM VCSH BKN060
     FM240400 34004KT P6SM SCT050=



000
FTUS46 KMFR 231500 AAB
TAFOTH
TAF AMD
KOTH 231543Z 2316/2412 25006KT 2SM RA BR OVC004
     FM231700 23010KT P6SM -SHRA BKN010 OVC025
     FM231900 25011G17KT P6SM -SHRA BKN025 OVC035
     FM240000 26010KT P6SM FEW025 SCT035
     FM240600 VRB03KT P6SM VCSH SCT015 OVC025=



000
FTUS46 KMFR 231400 AAA
TAFOTH
TAF AMD
KOTH 231416Z 2314/2412 22006KT 3SM RA BR OVC006
     FM231700 23010KT P6SM -SHRA BKN010 OVC025
     FM231900 25011G17KT P6SM -SHRA BKN025 OVC035
     FM240000 26010KT P6SM FEW025 SCT035
     FM240600 VRB03KT P6SM VCSH SCT015 OVC025=



000
FTUS46 KMFR 231100 RRA
TAFLMT
TAF
KLMT 231149Z 2312/2412 18006KT P6SM SCT100
     FM231700 18012G19KT P6SM SCT080
     FM232100 25020G30KT P6SM VCSH SCT040 BKN080
     FM240300 32016KT P6SM SCT040
     FM240600 27005KT P6SM FEW040=



000
FTUS46 KMFR 231100 RRA
TAFRBG
TAF
KRBG 231149Z 2312/2412 35005KT P6SM VCSH SCT025 OVC035
     FM231300 VRB03KT 5SM -RA BR BKN020 OVC030
     FM232000 34008KT P6SM -SHRA BKN030 OVC050
     FM240100 33006KT P6SM SCT030 BKN050=



000
FTUS46 KMFR 231100 RRA
TAFMFR
TAF
KMFR 231149Z 2312/2412 VRB03KT P6SM SCT050 OVC070
     FM231500 31006KT P6SM -SHRA BKN040 OVC060
     FM232100 31014G21KT P6SM VCSH BKN060
     FM240400 34004KT P6SM SCT050=



000
FTUS46 KMFR 231100 RRA
TAFOTH
TAF
KOTH 231149Z 2312/2412 18007KT 4SM -RA BR BKN010 OVC020
     FM231400 23009KT 4SM RA BR SCT006 OVC010
     FM231900 25011G17KT P6SM -SHRA BKN020 OVC035
     FM240000 26010KT P6SM FEW025 SCT035
     FM240600 VRB03KT P6SM VCSH SCT015 OVC025=



000
FTUS46 KMFR 230800 AAA
TAFOTH
TAF AMD
KOTH 230829Z 2308/2406 18005KT P6SM SCT025 OVC060
     FM231200 21007KT 6SM -RA BR SCT015 OVC025
     FM231500 25009KT 4SM RA BR SCT006 OVC012
     FM231900 25011G17KT P6SM -SHRA BKN020 OVC035
     FM240000 26009KT P6SM FEW025 SCT035=



000
FTUS46 KMFR 230500 CCA
TAFLMT
TAF COR
KLMT 230556Z 2306/2406 VRB05KT P6SM SCT080
     FM231700 18012G19KT P6SM SCT100
     FM232100 25020G30KT P6SM VCSH SCT040 BKN080
     FM240300 32016KT P6SM FEW040=



000
FTUS46 KMFR 230500 CCA
TAFMFR
TAF COR
KMFR 230553Z 2306/2406 VRB03KT P6SM FEW050 SCT090
     FM230900 VRB03KT P6SM SCT010 OVC020
     FM231700 31006KT P6SM -SHRA BKN040 OVC060
     FM232100 31012G19KT P6SM BKN050=



000
FTUS46 KMFR 230500 RRA
TAFLMT
TAF
KLMT 230547Z 2306/2406 VRB05KT P6SM SCT080
     FM231700 18012G19KT P6SM SCT100
     FM232100 25020G30KT P6SM SCT100=



000
FTUS46 KMFR 230500 RRA
TAFMFR
TAF
KMFR 230547Z 2306/2406 VRB03KT P6SM FEW050 SCT090
     FM230900 VRB03KT P6SM SCT020 BKN040
     FM231600 32004KT P6SM BKN050
     FM232000 32012G19KT P6SM BKN050=



000
FTUS46 KMFR 230500 RRA
TAFOTH
TAF
KOTH 230547Z 2306/2406 21005KT P6SM BKN009 OVC040
     FM231200 21007KT 6SM -RA BR BKN006 BKN015 OVC035
     FM231500 25009KT 4SM RA BR SCT006 OVC012
     FM231900 25011G17KT P6SM -SHRA BKN020 BKN040
     FM240000 26009KT P6SM FEW025=



000
FTUS46 KMFR 230500 RRA
TAFRBG
TAF
KRBG 230547Z 2306/2406 35005KT P6SM VCSH SCT060 BKN250
     FM231300 VRB03KT P6SM -SHRA BKN020 OVC050
     FM232100 34005KT P6SM -SHRA BKN035 OVC060=



000
FTUS46 KMFR 222300
TAFRBG
TAF
KRBG 222337Z 2300/2324 35005KT P6SM VCSH SCT060 BKN250
     FM231300 VRB03KT P6SM -SHRA BKN020 OVC050
     FM232100 34005KT P6SM -SHRA BKN035 OVC060=



000
FTUS46 KMFR 222300
TAFLMT
TAF
KLMT 222337Z 2300/2324 19012G20KT P6SM VCTS BKN050CB BKN100
     FM230400 25009KT P6SM SCT080
     FM231700 18012G19KT P6SM SCT100
     FM232100 25020G30KT P6SM SCT100=



000
FTUS46 KMFR 222300
TAFOTH
TAF
KOTH 222337Z 2300/2324 28008KT P6SM SCT020 BKN080
     FM230500 22006KT P6SM BKN020
     FM230900 21004KT P6SM VCSH OVC008
     FM231700 18008KT P6SM -SHRA OVC004
     FM231900 24009KT P6SM -SHRA BKN020
     FM232200 26009KT P6SM -SHRA BKN035=



000
FTUS46 KMFR 222300
TAFMFR
TAF
KMFR 222337Z 2300/2324 30007KT P6SM VCTS SCT050CB BKN090
     FM230400 VRB03KT P6SM SCT050 BKN090
     FM230900 VRB03KT P6SM SCT020 BKN040
     FM231600 32004KT P6SM BKN050
     FM232000 32012G19KT P6SM BKN050=



000
FTUS46 KMFR 222100 AAA
TAFMFR
TAF AMD
KMFR 222143Z 2222/2318 30007KT P6SM VCTS SCT050CB BKN090
     FM230400 VRB03KT P6SM SCT050 BKN090
     FM230900 VRB03KT P6SM SCT020 BKN040
     FM231600 32004KT P6SM BKN050=



000
FTUS46 KMFR 221900 AAB
TAFLMT
TAF AMD
KLMT 221910Z 2219/2318 16016G25KT P6SM FEW070
     FM222300 19017G25KT P6SM VCTS BKN050CB BKN100
     FM230400 25009KT P6SM SCT080
     FM231700 18012G19KT P6SM SCT100=



000
FTUS46 KMFR 221800 AAC
TAFOTH
TAF AMD
KOTH 221844Z 2219/2318 12004KT P6SM BKN011 BKN070
     FM222000 25008KT P6SM SCT020 BKN080
     FM230300 21004KT P6SM OVC008
     FM230900 18008KT P6SM OVC004=



    US Dept of Commerce
    National Oceanic and Atmospheric Administration
    National Weather Service
    1325 East West Highway
    Silver Spring, MD 20910
    Page Author: NWS Internet Services Team
Disclaimer
Information Quality
Credits
Glossary
Privacy Policy
Freedom of Information Act (FOIA)
About Us
Career Opportunities